Terminal Aerodrome Forecast
Issued by NWS Charleston, WV

Home | Current Version | Previous Version | Text Only | Print | Product List | Glossary On
Versions: 1 2 3 4 5 6 7 8 9 10 11 12 13 14 15 16 17 18 19 20 21 22 23 24 25
000
FTUS41 KRLX 311100
TAFBKW
TAF
KBKW 311127Z 3112/0112 00000KT P6SM BKN100
     FM311600 26004KT P6SM OVC070
     FM312000 27007KT 6SM -SHRA BR OVC040
     FM010200 30007KT 3SM -SHRA BR OVC015
     FM010500 30007KT 2SM -RASN BR OVC008
     FM011000 29008G15KT 2SM -SN BR BKN003 OVC010=

USA.gov is the U.S. government's official web portal to all federal, state and local government web resources and services.